Time;durP1;ratioP1;P1;durP2;ratioP2;P2;SDS_P1;SDS_P2;PMS_P1;PMS_P2;Temp;Humidity;BMP_temperature;BMP_pressure;BME280_temperature;BME280_humidity;BME280_pressure;Samples;Min_cycle;Max_cycle;Signal;HPM_P1;HPM_P2
2023/04/09 00:00:20;;;;;;;82.83;41.33;;;7.00;99.90;;;;;;4997940;28;20627;-54
2023/04/09 00:02:47;;;;;;;89.10;41.43;;;7.00;99.90;;;;;;4976479;28;20220;-52
2023/04/09 00:05:14;;;;;;;93.60;41.47;;;7.00;99.90;;;;;;5000304;28;20804;-54
2023/04/09 00:07:41;;;;;;;82.43;40.30;;;7.00;99.90;;;;;;4995513;28;20266;-50
2023/04/09 00:10:09;;;;;;;90.33;41.80;;;6.90;99.90;;;;;;4995152;28;20712;-53
2023/04/09 00:12:36;;;;;;;94.80;43.10;;;7.00;99.90;;;;;;4995531;28;20452;-51
2023/04/09 00:15:04;;;;;;;94.43;42.57;;;7.00;99.90;;;;;;4998016;28;20880;-54
2023/04/09 00:17:31;;;;;;;92.67;39.37;;;7.00;99.90;;;;;;5001218;28;20203;-50
2023/04/09 00:19:58;;;;;;;86.43;39.37;;;7.00;99.90;;;;;;4978246;28;20221;-52
2023/04/09 00:22:24;;;;;;;78.43;38.30;;;7.00;99.90;;;;;;4995383;28;20607;-50
2023/04/09 00:24:51;;;;;;;86.77;37.47;;;6.90;99.90;;;;;;4993265;28;20292;-49
2023/04/09 00:27:20;;;;;;;77.20;37.03;;;7.00;99.90;;;;;;4996877;28;20204;-51
2023/04/09 00:29:47;;;;;;;77.87;35.93;;;6.90;99.90;;;;;;5000796;28;20243;-53
2023/04/09 00:32:14;;;;;;;84.27;36.20;;;7.00;99.90;;;;;;4993316;28;20417;-50
2023/04/09 00:34:41;;;;;;;83.87;35.73;;;7.00;99.90;;;;;;4983122;28;20200;-52
2023/04/09 00:37:29;;;;;;;79.77;34.93;;;6.90;99.90;;;;;;4992318;28;20215;-51
2023/04/09 00:39:57;;;;;;;78.83;34.80;;;6.90;99.90;;;;;;4976912;28;20232;-49
2023/04/09 00:42:25;;;;;;;70.13;36.27;;;6.90;99.90;;;;;;4989593;28;20668;-55
2023/04/09 00:44:52;;;;;;;72.70;34.77;;;6.90;99.90;;;;;;5000209;28;20197;-52
2023/04/09 00:47:19;;;;;;;82.20;34.90;;;6.90;99.90;;;;;;4990622;28;20371;-54
2023/04/09 00:49:47;;;;;;;74.00;34.50;;;6.90;99.90;;;;;;4979686;28;20205;-54
2023/04/09 00:52:14;;;;;;;70.53;33.23;;;6.90;99.90;;;;;;4987878;28;20473;-52
2023/04/09 00:54:41;;;;;;;74.30;35.47;;;6.90;99.90;;;;;;4978449;28;20280;-51
2023/04/09 00:57:28;;;;;;;72.07;33.60;;;6.90;99.90;;;;;;5002457;28;20208;-52
2023/04/09 00:59:55;;;;;;;81.27;34.30;;;6.90;99.90;;;;;;4998875;28;20208;-51
2023/04/09 01:02:22;;;;;;;72.73;33.57;;;6.90;99.90;;;;;;4984599;28;20201;-52
2023/04/09 01:04:50;;;;;;;72.10;33.20;;;6.90;99.90;;;;;;4974833;28;20786;-49
2023/04/09 01:07:26;;;;;;;73.97;32.13;;;6.80;99.90;;;;;;4975731;28;20197;-54
2023/04/09 01:10:01;;;;;;;66.50;30.17;;;6.80;99.90;;;;;;4983843;28;20207;-51
2023/04/09 01:12:35;;;;;;;67.27;32.33;;;6.80;99.90;;;;;;5000061;28;20255;-52
2023/04/09 01:15:06;;;;;;;68.20;32.27;;;6.80;99.90;;;;;;4976659;28;20201;-53
2023/04/09 01:17:38;;;;;;;69.37;31.87;;;6.80;99.90;;;;;;5000842;28;20267;-52
2023/04/09 01:20:11;;;;;;;69.80;33.53;;;6.90;99.90;;;;;;4971698;28;20225;-52
2023/04/09 01:22:49;;;;;;;67.70;32.60;;;6.90;99.90;;;;;;4973683;28;20236;-52
2023/04/09 01:25:32;;;;;;;73.17;35.50;;;6.80;99.90;;;;;;4960850;28;20205;-52
2023/04/09 01:28:15;;;;;;;73.27;32.93;;;6.80;99.90;;;;;;4980820;28;20206;-54
2023/04/09 01:30:46;;;;;;;74.00;33.03;;;6.70;99.90;;;;;;4965556;28;20392;-51
2023/04/09 01:33:35;;;;;;;72.77;32.10;;;6.70;99.90;;;;;;4969316;28;20276;-51
2023/04/09 01:36:06;;;;;;;76.17;35.10;;;6.70;99.90;;;;;;4959551;28;20210;-53
2023/04/09 01:38:36;;;;;;;72.00;33.27;;;6.70;99.90;;;;;;4973645;28;20305;-51
2023/04/09 01:41:04;;;;;;;81.80;34.97;;;6.80;99.90;;;;;;4984132;28;20240;-51
2023/04/09 01:43:34;;;;;;;73.07;34.10;;;6.80;99.90;;;;;;4964322;28;20312;-49
2023/04/09 01:46:02;;;;;;;79.20;35.77;;;6.80;99.90;;;;;;4967515;28;20204;-51
2023/04/09 01:48:30;;;;;;;78.50;34.13;;;6.80;99.90;;;;;;4968606;28;20209;-52
2023/04/09 01:50:57;;;;;;;80.77;35.43;;;6.80;99.90;;;;;;4961506;28;20205;-54
2023/04/09 01:53:46;;;;;;;75.13;34.53;;;6.80;99.90;;;;;;4983725;28;21015;-53
2023/04/09 01:56:13;;;;;;;82.47;35.50;;;6.80;99.90;;;;;;4956874;28;20217;-52
2023/04/09 01:58:42;;;;;;;70.10;32.70;;;6.80;99.90;;;;;;4964366;28;20201;-53
2023/04/09 02:01:12;;;;;;;74.80;34.43;;;6.80;99.90;;;;;;4963176;28;20640;-50
2023/04/09 02:03:44;;;;;;;73.57;34.07;;;6.80;99.90;;;;;;4967373;28;20232;-52
2023/04/09 02:06:15;;;;;;;72.33;34.03;;;6.80;99.90;;;;;;4965547;28;20205;-51
2023/04/09 02:08:46;;;;;;;79.63;35.03;;;6.80;99.90;;;;;;4982274;28;20313;-52
2023/04/09 02:11:15;;;;;;;69.73;33.73;;;6.80;99.90;;;;;;4978139;28;20272;-52
2023/04/09 02:13:45;;;;;;;81.87;35.37;;;6.80;99.90;;;;;;4980677;28;20220;-55
2023/04/09 02:16:15;;;;;;;82.97;34.67;;;6.80;99.90;;;;;;4977457;28;20212;-51
2023/04/09 02:18:42;;;;;;;80.13;35.17;;;6.80;99.90;;;;;;4978121;28;20193;-52
2023/04/09 02:21:09;;;;;;;79.97;33.77;;;6.80;99.90;;;;;;4964100;28;20213;-52
2023/04/09 02:23:37;;;;;;;84.83;36.73;;;6.80;99.90;;;;;;4981077;28;20236;-52
2023/04/09 02:26:05;;;;;;;82.43;35.93;;;6.80;99.90;;;;;;4984901;28;20566;-54
2023/04/09 02:28:32;;;;;;;83.10;35.20;;;6.80;99.90;;;;;;4952673;28;20228;-51
2023/04/09 02:31:21;;;;;;;82.37;36.93;;;6.80;99.90;;;;;;4976203;28;20207;-51
2023/04/09 02:33:48;;;;;;;89.73;36.87;;;6.80;99.90;;;;;;4965894;28;20236;-55
2023/04/09 02:36:15;;;;;;;85.47;37.43;;;6.70;99.90;;;;;;4965583;28;20207;-52
2023/04/09 02:38:42;;;;;;;87.07;37.83;;;6.70;99.90;;;;;;4967883;28;20196;-52
2023/04/09 02:41:10;;;;;;;88.13;39.17;;;6.70;99.90;;;;;;4984268;28;20220;-51
2023/04/09 02:43:37;;;;;;;85.63;35.03;;;6.70;99.90;;;;;;4966837;28;20866;-52
2023/04/09 02:46:04;;;;;;;84.73;38.33;;;6.60;99.90;;;;;;4990275;28;20208;-51
2023/04/09 02:48:32;;;;;;;91.30;37.60;;;6.70;99.90;;;;;;4963342;28;20204;-51
2023/04/09 02:50:59;;;;;;;88.10;37.93;;;6.70;99.90;;;;;;4973355;28;20225;-52
2023/04/09 02:53:27;;;;;;;83.30;37.70;;;6.70;99.90;;;;;;4943907;28;20632;-52
2023/04/09 02:55:54;;;;;;;86.90;37.53;;;6.70;99.90;;;;;;4981252;28;20193;-51
2023/04/09 02:58:21;;;;;;;91.53;36.33;;;6.70;99.90;;;;;;4966120;28;20205;-53
2023/04/09 03:00:48;;;;;;;86.17;35.90;;;6.70;99.90;;;;;;4963038;28;20925;-51
2023/04/09 03:03:15;;;;;;;81.73;37.17;;;6.70;99.90;;;;;;4965769;28;20288;-51
2023/04/09 03:05:44;;;;;;;88.40;36.50;;;6.70;99.90;;;;;;4981229;28;20204;-53
2023/04/09 03:08:11;;;;;;;88.23;36.07;;;6.70;99.90;;;;;;4945932;28;20707;-51
2023/04/09 03:10:38;;;;;;;89.20;35.77;;;6.60;99.90;;;;;;4974835;28;20212;-51
2023/04/09 03:13:05;;;;;;;90.00;35.20;;;6.70;99.90;;;;;;4975458;28;20252;-51
2023/04/09 03:15:31;;;;;;;77.57;35.27;;;6.60;99.90;;;;;;4964086;28;20205;-51
2023/04/09 03:17:58;;;;;;;83.07;36.10;;;6.70;99.90;;;;;;4966017;28;20296;-52
2023/04/09 03:20:25;;;;;;;80.43;34.43;;;6.70;99.90;;;;;;4980878;28;20228;-50
2023/04/09 03:22:53;;;;;;;92.10;35.63;;;6.70;99.90;;;;;;4944265;28;20241;-50
2023/04/09 03:25:28;;;;;;;87.77;36.97;;;6.70;99.90;;;;;;4955206;28;20205;-49
2023/04/09 03:27:56;;;;;;;84.93;35.50;;;6.80;99.90;;;;;;4978483;28;20202;-50
2023/04/09 03:30:35;;;;;;;85.00;36.87;;;6.70;99.90;;;;;;4955242;28;20804;-52
2023/04/09 03:33:05;;;;;;;82.63;35.30;;;6.70;99.90;;;;;;4966397;28;20656;-52
2023/04/09 03:35:36;;;;;;;85.73;37.37;;;6.70;99.90;;;;;;4978513;28;20202;-52
2023/04/09 03:38:05;;;;;;;84.57;35.83;;;6.70;99.90;;;;;;4959654;28;20267;-51
2023/04/09 03:40:32;;;;;;;94.70;37.63;;;6.80;99.90;;;;;;4953803;28;20718;-50
2023/04/09 03:42:59;;;;;;;80.93;35.77;;;6.70;99.90;;;;;;4983726;28;20639;-54
2023/04/09 03:45:26;;;;;;;85.37;36.20;;;6.70;99.90;;;;;;4974556;28;20233;-51
2023/04/09 03:47:59;;;;;;;94.00;38.20;;;6.70;99.90;;;;;;4965984;28;20269;-54
2023/04/09 03:50:26;;;;;;;92.97;39.60;;;6.70;99.90;;;;;;4980667;28;20205;-53
2023/04/09 03:52:55;;;;;;;86.90;34.80;;;6.70;99.90;;;;;;4975905;28;20222;-54
2023/04/09 03:55:24;;;;;;;92.20;37.63;;;6.70;99.90;;;;;;4939255;28;20205;-51
2023/04/09 03:57:52;;;;;;;82.70;36.23;;;6.70;99.90;;;;;;4981108;28;20263;-51
2023/04/09 04:00:24;;;;;;;82.40;35.83;;;6.70;99.90;;;;;;4965630;28;20213;-52
2023/04/09 04:02:51;;;;;;;91.70;37.17;;;6.70;99.90;;;;;;4968896;28;20225;-50
2023/04/09 04:05:28;;;;;;;83.67;35.97;;;6.70;99.90;;;;;;4974628;28;20231;-50
2023/04/09 04:07:58;;;;;;;78.67;36.20;;;6.70;99.90;;;;;;4950357;28;20205;-50
2023/04/09 04:10:30;;;;;;;84.47;34.97;;;6.70;99.90;;;;;;4948013;28;21177;-50
2023/04/09 04:12:57;;;;;;;80.57;34.80;;;6.60;99.90;;;;;;4957618;28;20225;-50
2023/04/09 04:15:40;;;;;;;82.77;36.63;;;6.60;99.90;;;;;;4975967;28;20192;-52
2023/04/09 04:18:07;;;;;;;87.77;36.00;;;6.60;99.90;;;;;;4974461;28;20201;-51
2023/04/09 04:20:39;;;;;;;85.53;35.40;;;6.60;99.90;;;;;;4976690;28;20217;-51
2023/04/09 04:23:10;;;;;;;100.07;37.57;;;6.70;99.90;;;;;;4974573;28;20229;-50
2023/04/09 04:25:46;;;;;;;89.13;35.63;;;6.70;99.90;;;;;;4951753;28;20283;-51
2023/04/09 04:28:18;;;;;;;86.63;35.63;;;6.70;99.90;;;;;;4964346;28;20214;-53
2023/04/09 04:30:46;;;;;;;84.50;33.63;;;6.70;99.90;;;;;;4974801;28;20209;-52
2023/04/09 04:33:13;;;;;;;77.87;31.90;;;6.70;99.90;;;;;;4951370;28;20227;-52
2023/04/09 04:35:48;;;;;;;75.20;32.67;;;6.70;99.90;;;;;;4981836;28;20228;-51
2023/04/09 04:38:31;;;;;;;78.27;31.93;;;6.70;99.90;;;;;;4957493;28;20288;-52
2023/04/09 04:41:03;;;;;;;70.60;32.60;;;6.60;99.90;;;;;;4944602;28;20217;-52
2023/04/09 04:43:34;;;;;;;91.90;34.93;;;6.60;99.90;;;;;;4996296;28;20784;-55
2023/04/09 04:46:01;;;;;;;89.47;34.13;;;6.70;99.90;;;;;;4958430;28;20260;-51
2023/04/09 04:48:31;;;;;;;94.93;34.13;;;6.70;99.90;;;;;;4968663;28;20205;-52
2023/04/09 04:50:59;;;;;;;87.43;33.47;;;6.70;99.90;;;;;;4974938;28;20202;-52
2023/04/09 04:53:31;;;;;;;84.17;32.17;;;6.70;99.90;;;;;;4962563;28;20314;-51
2023/04/09 04:56:04;;;;;;;77.47;31.83;;;6.70;99.90;;;;;;4961738;28;20367;-49
2023/04/09 04:58:31;;;;;;;87.10;31.97;;;6.60;99.90;;;;;;4975811;28;20197;-50
2023/04/09 05:01:00;;;;;;;87.30;32.10;;;6.60;99.90;;;;;;4977487;28;20228;-51
2023/04/09 05:03:28;;;;;;;80.23;31.77;;;6.60;99.90;;;;;;4995619;28;20716;-51
2023/04/09 05:06:00;;;;;;;86.83;32.23;;;6.60;99.90;;;;;;4990183;28;20209;-53
2023/04/09 05:08:34;;;;;;;75.47;30.57;;;6.60;99.90;;;;;;4996133;28;20206;-50
2023/04/09 05:11:02;;;;;;;83.83;30.03;;;6.60;99.90;;;;;;4968167;28;20216;-50
2023/04/09 05:13:36;;;;;;;75.33;29.90;;;6.60;99.90;;;;;;4951466;28;20562;-52
2023/04/09 05:16:06;;;;;;;85.80;29.53;;;6.60;99.90;;;;;;4979348;28;20193;-50
2023/04/09 05:18:35;;;;;;;74.57;28.93;;;6.60;99.90;;;;;;4964596;28;20585;-52
2023/04/09 05:21:02;;;;;;;72.57;28.43;;;6.60;99.90;;;;;;4973220;28;20224;-50
2023/04/09 05:23:31;;;;;;;69.10;27.73;;;6.60;99.90;;;;;;4970252;28;20232;-52
2023/04/09 05:25:58;;;;;;;73.17;29.10;;;6.60;99.90;;;;;;4951497;28;20216;-51
2023/04/09 05:28:56;;;;;;;69.90;28.70;;;6.60;99.90;;;;;;4945967;28;20212;-53
2023/04/09 05:31:25;;;;;;;69.87;26.67;;;6.60;99.90;;;;;;4967617;28;20204;-54
2023/04/09 05:34:12;;;;;;;71.00;28.17;;;6.60;99.90;;;;;;4962201;28;20209;-52
2023/04/09 05:36:43;;;;;;;72.50;28.03;;;6.70;99.90;;;;;;4984350;28;20208;-55
2023/04/09 05:39:11;;;;;;;62.93;27.20;;;6.60;99.90;;;;;;4965872;28;20200;-52
2023/04/09 05:41:38;;;;;;;63.27;26.70;;;6.70;99.90;;;;;;4972206;28;20225;-53
2023/04/09 05:44:25;;;;;;;63.93;26.27;;;6.70;99.90;;;;;;4963305;28;20986;-55
2023/04/09 05:46:59;;;;;;;69.13;27.33;;;6.70;99.90;;;;;;4998075;28;20269;-49
2023/04/09 05:49:33;;;;;;;65.20;27.00;;;6.80;99.90;;;;;;4967499;28;20198;-52
2023/04/09 05:52:01;;;;;;;64.27;25.40;;;6.80;99.90;;;;;;4987833;28;20201;-50
2023/04/09 05:54:31;;;;;;;65.27;27.23;;;6.90;99.90;;;;;;4959827;28;20234;-49
2023/04/09 05:56:59;;;;;;;60.30;24.83;;;6.90;99.90;;;;;;4977461;28;20207;-50
2023/04/09 05:59:28;;;;;;;57.83;25.27;;;6.90;99.90;;;;;;4960544;28;20213;-52
2023/04/09 06:01:55;;;;;;;56.97;24.50;;;6.90;99.90;;;;;;4983725;28;20225;-49
2023/04/09 06:04:23;;;;;;;60.37;26.07;;;6.90;99.90;;;;;;4966633;28;20233;-52
2023/04/09 06:06:51;;;;;;;61.63;25.90;;;6.90;99.90;;;;;;4976916;28;20213;-49
2023/04/09 06:09:18;;;;;;;61.43;25.10;;;7.00;99.90;;;;;;4951260;28;20202;-54
2023/04/09 06:11:45;;;;;;;60.90;25.33;;;7.00;99.90;;;;;;4991282;28;20197;-53
2023/04/09 06:14:15;;;;;;;57.77;25.70;;;7.00;99.90;;;;;;4932304;28;20229;-50
2023/04/09 06:16:43;;;;;;;59.47;25.93;;;7.00;99.90;;;;;;4981009;28;20202;-53
2023/04/09 06:19:11;;;;;;;61.90;25.70;;;7.00;99.90;;;;;;4961750;28;20193;-49
2023/04/09 06:21:39;;;;;;;61.67;26.43;;;7.00;99.90;;;;;;4959531;28;20225;-51
2023/04/09 06:24:09;;;;;;;57.97;26.13;;;7.00;99.90;;;;;;4987359;28;20232;-53
2023/04/09 06:26:35;;;;;;;59.97;26.43;;;7.10;99.90;;;;;;5004918;28;20239;-50
2023/04/09 06:29:03;;;;;;;58.97;25.70;;;7.10;99.90;;;;;;4974743;28;20205;-51
2023/04/09 06:31:30;;;;;;;58.33;26.53;;;7.10;99.90;;;;;;5004426;28;20195;-51
2023/04/09 06:33:58;;;;;;;63.53;27.53;;;7.10;99.90;;;;;;4998243;28;20216;-51
2023/04/09 06:36:26;;;;;;;56.97;26.60;;;7.10;99.90;;;;;;4995648;28;20200;-49
2023/04/09 06:38:53;;;;;;;63.03;25.70;;;7.10;99.90;;;;;;5001662;28;20208;-51
2023/04/09 06:41:21;;;;;;;53.70;25.63;;;7.10;99.90;;;;;;4994574;28;20271;-52
2023/04/09 06:44:10;;;;;;;60.60;25.40;;;7.10;99.90;;;;;;4988947;28;20325;-51
2023/04/09 06:46:58;;;;;;;54.73;23.50;;;7.20;99.90;;;;;;4978513;28;20628;-52
2023/04/09 06:49:27;;;;;;;51.47;23.77;;;7.20;99.90;;;;;;4994395;28;20275;-53
2023/04/09 06:51:54;;;;;;;57.63;24.57;;;7.20;99.90;;;;;;4999662;28;20193;-50
2023/04/09 06:54:21;;;;;;;45.13;23.00;;;7.30;99.90;;;;;;5002469;28;20295;-54
2023/04/09 06:56:48;;;;;;;48.40;23.33;;;7.30;99.90;;;;;;4993048;28;20251;-51
2023/04/09 06:59:16;;;;;;;46.60;23.60;;;7.30;99.90;;;;;;4989675;28;20292;-49
2023/04/09 07:02:04;;;;;;;48.20;22.50;;;7.30;99.90;;;;;;4971316;28;20227;-52
2023/04/09 07:04:54;;;;;;;52.57;23.37;;;7.30;99.90;;;;;;4997233;28;20208;-51
2023/04/09 07:07:22;;;;;;;55.40;25.40;;;7.30;99.90;;;;;;5002112;28;20189;-50
2023/04/09 07:09:49;;;;;;;51.77;24.47;;;7.40;99.90;;;;;;5001779;28;20280;-49
2023/04/09 07:12:26;;;;;;;56.23;25.60;;;7.40;99.90;;;;;;4993539;28;20483;-51
2023/04/09 07:14:56;;;;;;;50.80;25.17;;;7.40;99.90;;;;;;4977156;28;20296;-49
2023/04/09 07:17:23;;;;;;;53.43;25.13;;;7.40;99.90;;;;;;4989226;28;20211;-49
2023/04/09 07:19:51;;;;;;;57.17;25.83;;;7.40;99.90;;;;;;4999750;28;20200;-56
2023/04/09 07:22:20;;;;;;;62.20;25.87;;;7.40;99.90;;;;;;4998538;28;20213;-51
2023/04/09 07:24:52;;;;;;;60.23;26.43;;;7.40;99.90;;;;;;4983828;28;20197;-50
2023/04/09 07:27:20;;;;;;;63.17;27.50;;;7.40;99.90;;;;;;4974239;28;20987;-54
2023/04/09 07:29:47;;;;;;;58.13;26.80;;;7.40;99.90;;;;;;4970197;28;20891;-51
2023/04/09 07:32:14;;;;;;;68.10;27.47;;;7.50;99.90;;;;;;4945905;28;20198;-51
2023/04/09 07:34:42;;;;;;;60.17;25.83;;;7.60;99.90;;;;;;4984050;28;20204;-53
2023/04/09 07:37:08;;;;;;;57.50;25.17;;;7.60;99.90;;;;;;4979415;28;20256;-52
2023/04/09 07:39:37;;;;;;;55.97;25.43;;;7.60;99.90;;;;;;4983170;28;20193;-53
2023/04/09 07:42:04;;;;;;;55.43;24.73;;;7.70;99.90;;;;;;4978752;28;20229;-51
2023/04/09 07:44:33;;;;;;;57.87;25.87;;;7.70;99.90;;;;;;4983784;28;20216;-53
2023/04/09 07:47:01;;;;;;;60.43;26.27;;;7.80;99.90;;;;;;4951030;28;20228;-55
2023/04/09 07:49:27;;;;;;;51.57;23.90;;;7.90;99.90;;;;;;4982346;28;20253;-54
2023/04/09 07:51:54;;;;;;;54.67;24.73;;;7.90;99.90;;;;;;4979475;28;20192;-54
2023/04/09 07:54:21;;;;;;;46.50;23.50;;;7.90;99.90;;;;;;4983416;28;20586;-51
2023/04/09 07:56:50;;;;;;;58.27;25.00;;;8.10;99.90;;;;;;4976791;28;20204;-51
2023/04/09 07:59:16;;;;;;;54.60;23.30;;;8.10;99.90;;;;;;4967183;28;20227;-52
2023/04/09 08:01:44;;;;;;;46.33;22.00;;;8.20;99.90;;;;;;4973872;28;20701;-50
2023/04/09 08:04:11;;;;;;;47.50;23.07;;;8.20;99.90;;;;;;4962619;28;20329;-49
2023/04/09 08:06:39;;;;;;;46.07;21.70;;;8.30;99.90;;;;;;4982506;28;20252;-51
2023/04/09 08:09:07;;;;;;;46.47;22.07;;;8.20;99.90;;;;;;4980665;28;20224;-53
2023/04/09 08:11:34;;;;;;;46.33;23.90;;;8.30;99.90;;;;;;4976710;28;20202;-47
2023/04/09 08:14:05;;;;;;;49.37;22.90;;;8.30;99.90;;;;;;4964447;28;20236;-51
2023/04/09 08:16:31;;;;;;;50.83;24.13;;;8.40;99.90;;;;;;4980966;28;20197;-51
2023/04/09 08:18:59;;;;;;;43.63;21.43;;;8.40;99.90;;;;;;4952988;28;21145;-52
2023/04/09 08:21:26;;;;;;;43.10;21.50;;;8.50;99.90;;;;;;4982957;28;20197;-50
2023/04/09 08:23:54;;;;;;;44.10;21.80;;;8.50;99.90;;;;;;4993255;28;20223;-51
2023/04/09 08:26:22;;;;;;;38.10;20.10;;;8.50;99.90;;;;;;4995299;28;20223;-52
2023/04/09 08:28:50;;;;;;;38.63;19.97;;;8.60;99.90;;;;;;4988631;28;20548;-53
2023/04/09 08:31:19;;;;;;;38.67;19.93;;;8.60;99.90;;;;;;5002750;28;20217;-51
2023/04/09 08:33:45;;;;;;;33.93;18.80;;;8.60;99.90;;;;;;4977282;28;20232;-51
2023/04/09 08:36:13;;;;;;;37.67;19.10;;;8.60;99.90;;;;;;4998939;28;20231;-52
2023/04/09 08:38:40;;;;;;;33.10;19.27;;;8.60;99.90;;;;;;4996654;28;20197;-51
2023/04/09 08:41:08;;;;;;;37.57;19.67;;;8.60;99.90;;;;;;4993411;28;21025;-52
2023/04/09 08:43:36;;;;;;;35.93;19.20;;;8.70;99.90;;;;;;4999708;28;20235;-52
2023/04/09 08:46:04;;;;;;;38.43;20.53;;;8.70;99.90;;;;;;4995265;28;21032;-50
2023/04/09 08:48:32;;;;;;;33.60;19.60;;;8.70;99.90;;;;;;5001552;28;20201;-51
2023/04/09 08:51:23;;;;;;;36.20;19.10;;;8.60;99.90;;;;;;4997969;28;20215;-51
2023/04/09 08:53:56;;;;;;;36.23;18.50;;;8.70;99.90;;;;;;4993426;28;20223;-51
2023/04/09 08:56:23;;;;;;;35.10;19.53;;;8.70;99.90;;;;;;5001925;28;20205;-51
2023/04/09 08:58:53;;;;;;;31.33;18.77;;;8.70;99.90;;;;;;4989293;28;20925;-51
2023/04/09 09:01:21;;;;;;;36.17;18.90;;;8.70;99.90;;;;;;5009758;28;20689;-50
2023/04/09 09:03:59;;;;;;;33.33;18.33;;;8.70;99.90;;;;;;4975333;28;20247;-48
2023/04/09 09:06:28;;;;;;;33.33;18.57;;;8.60;99.90;;;;;;4996650;28;20663;-52
2023/04/09 09:09:04;;;;;;;29.93;17.63;;;8.60;99.90;;;;;;4997630;28;20203;-54
2023/04/09 09:11:32;;;;;;;28.63;15.70;;;8.70;99.90;;;;;;5002081;28;20604;-51
2023/04/09 09:14:04;;;;;;;27.07;15.20;;;8.70;99.90;;;;;;4988246;28;20228;-52
2023/04/09 09:16:34;;;;;;;26.80;15.60;;;8.70;99.90;;;;;;4999474;28;20724;-50
2023/04/09 09:19:03;;;;;;;25.07;14.90;;;8.70;99.90;;;;;;4969465;28;20205;-51
2023/04/09 09:21:30;;;;;;;24.93;15.87;;;8.70;99.90;;;;;;5000565;28;20673;-51
2023/04/09 09:23:57;;;;;;;28.57;16.53;;;8.70;99.90;;;;;;4998088;28;20205;-52
2023/04/09 09:26:27;;;;;;;29.73;16.03;;;8.70;99.90;;;;;;5002309;28;20651;-51
2023/04/09 09:28:57;;;;;;;27.47;16.43;;;8.70;99.90;;;;;;4998904;28;20193;-55
2023/04/09 09:31:24;;;;;;;27.13;16.40;;;8.70;99.90;;;;;;4992269;28;20215;-51
2023/04/09 09:33:52;;;;;;;28.00;16.43;;;8.70;99.90;;;;;;4995436;28;20848;-51
2023/04/09 09:36:34;;;;;;;27.40;16.20;;;8.70;99.90;;;;;;4984534;28;20604;-54
2023/04/09 09:39:04;;;;;;;24.13;15.30;;;8.80;99.90;;;;;;4999100;28;20205;-51
2023/04/09 09:41:33;;;;;;;31.30;16.50;;;8.70;99.90;;;;;;5006296;28;20196;-51
2023/04/09 09:44:00;;;;;;;29.37;17.20;;;8.70;99.90;;;;;;4999969;28;20216;-53
2023/04/09 09:46:27;;;;;;;30.07;17.77;;;8.70;99.90;;;;;;4990128;28;20223;-51
2023/04/09 09:48:54;;;;;;;30.63;16.43;;;8.70;99.90;;;;;;4998459;28;20212;-52
2023/04/09 09:51:27;;;;;;;30.53;17.83;;;8.70;99.90;;;;;;4983741;28;20255;-53
2023/04/09 09:53:57;;;;;;;31.57;16.97;;;8.80;99.90;;;;;;5001051;28;20234;-52
2023/04/09 09:56:31;;;;;;;34.00;17.40;;;8.90;99.90;;;;;;5005160;28;20610;-51
2023/04/09 09:59:06;;;;;;;27.57;16.83;;;9.00;99.90;;;;;;4993382;28;20285;-49
2023/04/09 10:01:35;;;;;;;30.30;17.53;;;9.00;99.90;;;;;;4991154;28;20208;-50
2023/04/09 10:04:24;;;;;;;32.10;17.17;;;9.00;99.90;;;;;;5004641;28;20227;-50
2023/04/09 10:06:51;;;;;;;30.47;16.70;;;9.10;99.90;;;;;;4979795;28;20212;-51
2023/04/09 10:09:21;;;;;;;34.70;18.43;;;9.10;99.90;;;;;;5004673;28;20705;-51
2023/04/09 10:11:49;;;;;;;32.30;18.83;;;9.10;99.90;;;;;;5004053;28;20193;-50
2023/04/09 10:14:17;;;;;;;33.90;18.53;;;9.00;99.90;;;;;;4993590;28;20228;-51
2023/04/09 10:16:44;;;;;;;33.67;18.13;;;9.10;99.90;;;;;;4992172;28;20201;-50
2023/04/09 10:19:12;;;;;;;31.77;17.87;;;9.10;99.90;;;;;;5008732;28;20752;-49
2023/04/09 10:21:45;;;;;;;30.33;17.30;;;9.00;99.90;;;;;;4993091;28;20207;-48
2023/04/09 10:24:12;;;;;;;27.80;16.30;;;9.10;99.90;;;;;;4985550;28;20213;-58
2023/04/09 10:26:43;;;;;;;28.10;16.83;;;9.10;99.90;;;;;;4978407;28;20205;-52
2023/04/09 10:29:13;;;;;;;31.80;17.33;;;9.10;99.90;;;;;;4977125;28;20193;-50
2023/04/09 10:31:48;;;;;;;28.40;15.97;;;9.10;99.90;;;;;;4976637;28;20280;-53
2023/04/09 10:34:39;;;;;;;31.43;16.63;;;9.10;99.90;;;;;;4982521;28;20570;-51
2023/04/09 10:37:09;;;;;;;28.07;16.73;;;9.20;99.90;;;;;;4962856;28;20245;-50
2023/04/09 10:39:41;;;;;;;32.50;16.23;;;9.20;99.90;;;;;;4980873;28;20204;-51
2023/04/09 10:42:13;;;;;;;27.37;16.80;;;9.30;99.90;;;;;;4969616;28;20567;-52
2023/04/09 10:44:41;;;;;;;32.87;16.73;;;9.30;99.90;;;;;;4973741;28;20203;-50
2023/04/09 10:47:08;;;;;;;30.60;16.67;;;9.40;99.90;;;;;;4972828;28;20217;-52
2023/04/09 10:49:37;;;;;;;30.50;17.63;;;9.40;99.90;;;;;;4983093;28;20217;-51
2023/04/09 10:52:06;;;;;;;32.90;18.23;;;9.40;99.90;;;;;;4943645;28;20274;-51
2023/04/09 10:54:46;;;;;;;32.60;17.93;;;9.50;99.90;;;;;;4979412;28;20264;-53
2023/04/09 10:57:17;;;;;;;30.77;19.43;;;9.50;99.90;;;;;;4978684;28;20284;-51
2023/04/09 10:59:45;;;;;;;30.93;18.57;;;9.60;99.90;;;;;;4974125;28;20193;-51
2023/04/09 11:02:50;;;;;;;30.73;17.13;;;9.70;99.90;;;;;;4984035;28;20255;-53
2023/04/09 11:05:32;;;;;;;31.80;17.47;;;9.70;99.90;;;;;;4984153;28;20288;-52
2023/04/09 11:08:04;;;;;;;31.40;18.70;;;9.70;99.90;;;;;;4960672;28;20201;-55
2023/04/09 11:10:57;;;;;;;34.43;19.17;;;9.80;99.90;;;;;;4976007;28;20332;-53
2023/04/09 11:13:25;;;;;;;33.13;19.43;;;9.80;99.90;;;;;;4973993;28;20252;-54
2023/04/09 11:15:52;;;;;;;32.53;18.03;;;9.70;99.90;;;;;;4980404;28;20200;-54
2023/04/09 11:18:21;;;;;;;31.60;19.00;;;9.80;99.90;;;;;;4984404;28;20228;-52
2023/04/09 11:20:48;;;;;;;29.60;17.40;;;9.80;99.90;;;;;;4974016;28;20313;-51
2023/04/09 11:23:16;;;;;;;34.10;19.37;;;9.80;99.90;;;;;;4972153;28;20224;-51
2023/04/09 11:25:48;;;;;;;31.10;18.77;;;9.90;99.90;;;;;;4994582;28;20267;-53
2023/04/09 11:28:15;;;;;;;31.33;19.00;;;9.90;99.90;;;;;;4997679;28;20211;-52
2023/04/09 11:30:45;;;;;;;33.37;19.57;;;9.90;99.90;;;;;;5001686;28;20213;-52
2023/04/09 11:33:12;;;;;;;30.13;18.13;;;10.10;99.90;;;;;;5003284;28;20212;-53
2023/04/09 11:35:39;;;;;;;32.20;18.97;;;10.20;99.90;;;;;;4994909;28;20204;-51
2023/04/09 11:38:08;;;;;;;34.33;19.13;;;10.20;99.90;;;;;;4978586;28;20354;-55
2023/04/09 11:40:42;;;;;;;31.10;19.87;;;10.30;99.90;;;;;;4993837;28;20212;-53
2023/04/09 11:43:30;;;;;;;32.40;19.07;;;10.40;99.90;;;;;;5001702;28;20597;-51
2023/04/09 11:45:59;;;;;;;30.63;17.83;;;10.60;99.90;;;;;;5000273;28;20815;-53
2023/04/09 11:48:26;;;;;;;28.70;17.67;;;10.70;99.90;;;;;;5002822;28;20197;-55
2023/04/09 11:50:53;;;;;;;32.67;17.90;;;10.80;99.90;;;;;;4992404;28;20201;-52
2023/04/09 11:53:21;;;;;;;33.23;19.37;;;10.80;99.90;;;;;;4976335;28;20216;-53
2023/04/09 11:55:51;;;;;;;30.93;18.43;;;10.80;99.90;;;;;;4996194;28;20244;-51
2023/04/09 11:58:18;;;;;;;27.37;16.97;;;10.90;99.90;;;;;;4998681;28;20216;-50
2023/04/09 12:00:45;;;;;;;30.13;18.37;;;10.90;99.90;;;;;;5000717;28;20197;-51
2023/04/09 12:03:14;;;;;;;27.93;17.33;;;11.00;99.90;;;;;;4999595;28;20212;-52
2023/04/09 12:05:46;;;;;;;32.70;17.67;;;11.10;99.90;;;;;;4991128;28;20212;-54
2023/04/09 12:08:15;;;;;;;30.97;17.53;;;11.20;99.90;;;;;;4978309;28;20668;-49
2023/04/09 12:10:44;;;;;;;27.03;17.33;;;11.30;99.90;;;;;;4990587;28;20756;-52
2023/04/09 12:13:10;;;;;;;29.17;17.43;;;11.40;99.90;;;;;;5000387;28;20209;-49
2023/04/09 12:15:39;;;;;;;27.60;17.00;;;11.50;99.90;;;;;;4989771;28;21060;-51
2023/04/09 12:18:08;;;;;;;33.37;18.47;;;11.40;99.90;;;;;;4993233;28;20207;-51
2023/04/09 12:20:38;;;;;;;30.03;18.30;;;11.40;99.90;;;;;;4986660;28;20243;-54
2023/04/09 12:23:07;;;;;;;27.93;17.30;;;11.40;99.90;;;;;;4985162;28;20256;-50
2023/04/09 12:25:36;;;;;;;27.67;18.10;;;11.50;99.90;;;;;;4961330;28;20284;-52
2023/04/09 12:28:04;;;;;;;29.77;18.17;;;11.60;99.90;;;;;;4982128;28;20232;-52
2023/04/09 12:30:32;;;;;;;29.27;17.70;;;11.70;99.90;;;;;;4972534;28;20284;-50
2023/04/09 12:32:59;;;;;;;27.93;16.97;;;11.70;99.90;;;;;;4979481;28;20216;-52
2023/04/09 12:35:27;;;;;;;29.47;17.90;;;11.70;99.90;;;;;;4970839;28;20276;-52
2023/04/09 12:37:55;;;;;;;31.80;17.80;;;11.70;99.90;;;;;;4978915;28;20201;-53
2023/04/09 12:40:22;;;;;;;27.03;16.57;;;11.80;99.90;;;;;;4956937;28;20213;-52
2023/04/09 12:42:50;;;;;;;27.23;17.70;;;11.70;99.90;;;;;;4979754;28;20209;-52
2023/04/09 12:45:19;;;;;;;29.07;17.30;;;11.80;99.90;;;;;;4967821;28;20205;-53
2023/04/09 12:47:46;;;;;;;31.80;18.60;;;11.80;99.90;;;;;;4967589;28;20559;-52
2023/04/09 12:50:14;;;;;;;29.87;16.60;;;11.80;99.90;;;;;;4967781;28;20598;-53